createdAt,value
2024-02-21T00:00:25.226Z,93749.00
2024-02-21T00:01:25.326Z,93750.00
2024-02-21T00:02:25.373Z,93750.00
2024-02-21T00:03:25.430Z,93750.00
2024-02-21T00:04:25.741Z,93747.00
2024-02-21T00:05:25.630Z,93748.00
2024-02-21T00:06:25.630Z,93746.00
2024-02-21T00:07:25.759Z,93746.00
2024-02-21T00:08:25.853Z,93748.00
2024-02-21T00:09:25.817Z,93747.00
2024-02-21T00:10:25.884Z,93747.00
2024-02-21T00:11:25.975Z,93747.00
2024-02-21T00:12:25.978Z,93748.00
2024-02-21T00:13:26.084Z,93747.00
2024-02-21T00:14:26.125Z,93749.00
2024-02-21T00:15:26.147Z,93749.00
2024-02-21T00:16:26.288Z,93749.00
2024-02-21T00:17:26.326Z,93750.00
2024-02-21T00:18:29.919Z,93752.00
2024-02-21T00:19:26.499Z,93752.00
2024-02-21T00:20:26.441Z,93749.00
2024-02-21T00:21:26.467Z,93748.00
2024-02-21T00:22:26.487Z,93747.00
2024-02-21T00:23:26.496Z,93741.00
2024-02-21T00:24:26.515Z,93746.00
2024-02-21T00:25:26.558Z,93742.00
2024-02-21T00:26:26.553Z,93743.00
2024-02-21T00:27:26.602Z,93742.00
2024-02-21T00:28:26.681Z,93743.00
2024-02-21T00:29:26.626Z,93743.00
2024-02-21T00:30:26.665Z,93740.00
2024-02-21T00:31:26.723Z,93738.00
2024-02-21T00:32:26.767Z,93735.00
2024-02-21T00:33:26.799Z,93733.00
2024-02-21T00:34:26.897Z,93728.00
2024-02-21T00:35:26.867Z,93730.00
2024-02-21T00:36:26.815Z,93730.00
2024-02-21T00:37:26.923Z,93730.00
2024-02-21T00:38:26.865Z,93730.00
2024-02-21T00:39:26.884Z,93730.00
2024-02-21T00:40:26.922Z,93731.00
2024-02-21T00:41:26.936Z,93731.00
2024-02-21T00:42:26.968Z,93730.00
2024-02-21T00:43:27.074Z,93733.00
2024-02-21T00:44:27.066Z,93735.00
2024-02-21T00:45:27.050Z,93736.00
2024-02-21T00:46:27.180Z,93736.00
2024-02-21T00:47:27.160Z,93736.00
2024-02-21T00:48:27.221Z,93739.00
2024-02-21T00:49:27.144Z,93740.00
2024-02-21T00:50:27.144Z,93739.00
2024-02-21T00:51:27.165Z,93738.00
2024-02-21T00:52:27.248Z,93739.00
2024-02-21T00:53:27.227Z,93734.00
2024-02-21T00:54:31.934Z,93734.00
2024-02-21T00:55:28.278Z,93733.00
2024-02-21T00:56:27.283Z,93734.00
2024-02-21T00:57:27.299Z,93736.00
2024-02-21T00:58:27.342Z,93734.00
2024-02-21T00:59:27.343Z,93738.00
2024-02-21T01:00:27.380Z,93738.00
2024-02-21T01:01:27.537Z,93738.00
2024-02-21T01:02:27.465Z,93741.00
2024-02-21T01:03:27.480Z,93739.00
2024-02-21T01:04:27.510Z,93738.00
2024-02-21T01:05:27.486Z,93737.00
2024-02-21T01:06:27.606Z,93737.00
2024-02-21T01:07:27.613Z,93737.00
2024-02-21T01:08:27.676Z,93737.00
2024-02-21T01:09:27.721Z,93736.00
2024-02-21T01:10:27.874Z,93734.00
2024-02-21T01:11:27.843Z,93732.00
2024-02-21T01:12:27.895Z,93728.00
2024-02-21T01:13:27.938Z,93730.00
2024-02-21T01:14:27.957Z,93724.00
2024-02-21T01:15:28.015Z,93723.00
2024-02-21T01:16:28.119Z,93724.00
2024-02-21T01:17:28.142Z,93723.00
2024-02-21T01:18:28.339Z,93724.00
2024-02-21T01:19:28.273Z,93722.00
2024-02-21T01:20:28.313Z,93722.00
2024-02-21T01:21:28.392Z,93723.00
2024-02-21T01:22:28.528Z,93722.00
2024-02-21T01:23:28.525Z,93721.00
2024-02-21T01:24:28.589Z,93720.00
2024-02-21T01:25:28.664Z,93719.00
2024-02-21T01:26:28.667Z,93717.00
2024-02-21T01:27:28.697Z,93715.00
2024-02-21T01:28:28.788Z,93712.00
2024-02-21T01:29:28.794Z,93713.00
2024-02-21T01:30:28.825Z,93711.00
2024-02-21T01:31:28.910Z,93713.00
2024-02-21T01:32:28.960Z,93712.00
2024-02-21T01:33:28.945Z,93712.00
2024-02-21T01:34:32.665Z,93710.00
2024-02-21T01:35:29.096Z,93709.00
2024-02-21T01:36:29.003Z,93705.00
2024-02-21T01:37:29.112Z,93704.00
2024-02-21T01:38:29.053Z,93705.00
2024-02-21T01:39:29.066Z,93705.00
2024-02-21T01:40:29.145Z,93707.00
2024-02-21T01:41:29.097Z,93708.00
2024-02-21T01:42:29.120Z,93709.00
2024-02-21T01:43:29.193Z,93706.00
2024-02-21T01:44:29.168Z,93706.00
2024-02-21T01:45:29.188Z,93703.00
2024-02-21T01:46:29.284Z,93703.00
2024-02-21T01:47:29.256Z,93703.00
2024-02-21T01:48:29.387Z,93702.00
2024-02-21T01:49:29.316Z,93705.00
2024-02-21T01:50:29.299Z,93706.00
2024-02-21T01:51:29.327Z,93707.00
2024-02-21T01:52:29.456Z,93705.00
2024-02-21T01:53:29.353Z,93707.00
2024-02-21T01:54:29.376Z,93701.00
2024-02-21T01:55:29.423Z,93700.00
2024-02-21T01:56:29.424Z,93698.00
2024-02-21T01:57:29.457Z,93699.00
2024-02-21T01:58:29.519Z,93695.00
2024-02-21T01:59:29.562Z,93698.00
2024-02-21T02:00:29.729Z,93695.00
2024-02-21T02:01:29.779Z,93694.00
2024-02-21T02:02:29.732Z,93692.00
2024-02-21T02:03:30.008Z,93693.00
2024-02-21T02:04:29.995Z,93691.00
2024-02-21T02:05:29.935Z,93688.00
2024-02-21T02:06:30.084Z,93689.00
2024-02-21T02:07:30.066Z,93687.00
2024-02-21T02:08:30.046Z,93686.00
2024-02-21T02:09:30.077Z,93684.00
2024-02-21T02:10:30.113Z,93683.00
2024-02-21T02:11:30.171Z,93682.00
2024-02-21T02:12:30.187Z,93684.00
2024-02-21T02:13:30.252Z,93683.00
2024-02-21T02:14:30.275Z,93685.00
2024-02-21T02:15:30.323Z,93684.00
2024-02-21T02:16:30.485Z,93686.00
2024-02-21T02:17:30.499Z,93686.00
2024-02-21T02:18:30.559Z,93686.00
2024-02-21T02:19:30.704Z,93683.00
2024-02-21T02:20:30.736Z,93687.00
2024-02-21T02:21:30.696Z,93688.00
2024-02-21T02:22:30.839Z,93684.00
2024-02-21T02:23:30.839Z,93686.00
2024-02-21T02:24:30.857Z,93686.00
2024-02-21T02:25:30.987Z,93683.00
2024-02-21T02:26:30.946Z,93677.00
2024-02-21T02:27:31.001Z,93684.00
2024-02-21T02:28:31.073Z,93685.00
2024-02-21T02:29:31.063Z,93686.00
2024-02-21T02:30:31.100Z,93685.00
2024-02-21T02:31:31.145Z,93682.00
2024-02-21T02:32:31.233Z,93681.00
2024-02-21T02:33:31.268Z,93678.00
2024-02-21T02:34:31.358Z,93680.00
2024-02-21T02:35:31.263Z,93680.00
2024-02-21T02:36:31.289Z,93679.00
2024-02-21T02:37:31.337Z,93678.00
2024-02-21T02:38:31.372Z,93679.00
2024-02-21T02:39:31.401Z,93678.00
2024-02-21T02:40:31.430Z,93676.00
2024-02-21T02:41:31.459Z,93669.00
2024-02-21T02:42:31.497Z,93671.00
2024-02-21T02:43:31.525Z,93670.00
2024-02-21T02:44:31.601Z,93669.00
2024-02-21T02:45:31.597Z,93670.00
2024-02-21T02:46:31.676Z,93670.00
2024-02-21T02:47:31.766Z,93669.00
2024-02-21T02:48:31.823Z,93667.00
2024-02-21T02:49:31.799Z,93667.00
2024-02-21T02:50:32.080Z,93666.00
2024-02-21T02:51:31.811Z,93665.00
2024-02-21T02:52:31.957Z,93664.00
2024-02-21T02:53:31.952Z,93664.00
2024-02-21T02:54:32.035Z,93666.00
2024-02-21T02:55:32.148Z,93664.00
2024-02-21T02:56:32.151Z,93665.00
2024-02-21T02:57:32.153Z,93663.00
2024-02-21T02:58:32.252Z,93664.00
2024-02-21T02:59:32.226Z,93662.00
2024-02-21T03:00:32.347Z,93662.00
2024-02-21T03:01:32.337Z,93665.00
2024-02-21T03:02:32.365Z,93664.00
2024-02-21T03:03:32.418Z,93662.00
2024-02-21T03:04:32.631Z,93661.00
2024-02-21T03:05:32.581Z,93662.00
2024-02-21T03:06:32.569Z,93660.00
2024-02-21T03:07:32.574Z,93663.00
2024-02-21T03:08:32.624Z,93660.00
2024-02-21T03:09:32.672Z,93659.00
2024-02-21T03:10:32.726Z,93659.00
2024-02-21T03:11:32.841Z,93663.00
2024-02-21T03:12:32.796Z,93659.00
2024-02-21T03:13:32.847Z,93660.00
2024-02-21T03:14:32.884Z,93658.00
2024-02-21T03:15:32.960Z,93658.00
2024-02-21T03:16:33.064Z,93657.00
2024-02-21T03:17:33.106Z,93656.00
2024-02-21T03:18:33.281Z,93658.00
2024-02-21T03:19:33.301Z,93657.00
2024-02-21T03:20:33.320Z,93654.00
2024-02-21T03:21:33.412Z,93656.00
2024-02-21T03:22:33.485Z,93654.00
2024-02-21T03:23:33.495Z,93654.00
2024-02-21T03:24:33.551Z,93651.00
2024-02-21T03:25:33.640Z,93653.00
2024-02-21T03:26:33.730Z,93652.00
2024-02-21T03:27:33.786Z,93650.00
2024-02-21T03:28:33.866Z,93652.00
2024-02-21T03:29:33.947Z,93652.00
2024-02-21T03:30:34.014Z,93649.00
2024-02-21T03:31:34.171Z,93650.00
2024-02-21T03:32:34.256Z,93652.00
2024-02-21T03:33:34.322Z,93649.00
2024-02-21T03:34:34.407Z,93651.00
2024-02-21T03:35:34.439Z,93647.00
2024-02-21T03:36:34.492Z,93649.00
2024-02-21T03:37:34.571Z,93649.00
2024-02-21T03:38:34.618Z,93647.00
2024-02-21T03:39:34.710Z,93645.00
2024-02-21T03:40:34.823Z,93640.00
2024-02-21T03:41:34.840Z,93642.00
2024-02-21T03:42:34.925Z,93644.00
2024-02-21T03:43:35.048Z,93644.00
2024-02-21T03:44:35.067Z,93637.00
2024-02-21T03:45:35.168Z,93641.00
2024-02-21T03:46:35.267Z,93637.00
2024-02-21T03:47:35.324Z,93633.00
2024-02-21T03:48:35.395Z,93631.00
2024-02-21T03:49:35.517Z,93629.00
2024-02-21T03:50:35.630Z,93626.00
2024-02-21T03:51:35.666Z,93628.00
2024-02-21T03:52:35.801Z,93628.00
2024-02-21T03:53:35.854Z,93627.00
2024-02-21T03:54:35.934Z,93626.00
2024-02-21T03:55:36.050Z,93630.00
2024-02-21T03:56:36.073Z,93628.00
2024-02-21T03:57:36.162Z,93628.00
2024-02-21T03:58:36.291Z,93633.00
2024-02-21T03:59:36.312Z,93636.00
2024-02-21T04:00:36.447Z,93626.00
2024-02-21T04:01:36.597Z,93626.00
2024-02-21T04:02:36.527Z,93623.00
2024-02-21T04:03:36.631Z,93622.00
2024-02-21T04:04:36.737Z,93626.00
2024-02-21T04:05:36.929Z,93631.00
2024-02-21T04:06:36.835Z,93631.00
2024-02-21T04:07:36.922Z,93634.00
2024-02-21T04:08:37.261Z,93632.00
2024-02-21T04:09:37.075Z,93632.00
2024-02-21T04:10:37.190Z,93630.00
2024-02-21T04:11:37.267Z,93630.00
2024-02-21T04:12:37.361Z,93630.00
2024-02-21T04:13:37.455Z,93625.00
2024-02-21T04:14:37.547Z,93626.00
2024-02-21T04:15:37.635Z,93627.00
2024-02-21T04:16:37.734Z,93632.00
2024-02-21T04:17:37.885Z,93626.00
2024-02-21T04:18:37.909Z,93628.00
2024-02-21T04:19:38.082Z,93630.00
2024-02-21T04:20:38.153Z,93629.00
2024-02-21T04:21:38.220Z,93628.00
2024-02-21T04:22:38.356Z,93627.00
2024-02-21T04:23:38.360Z,93625.00
2024-02-21T04:24:38.451Z,93626.00
2024-02-21T04:25:38.577Z,93625.00
2024-02-21T04:26:38.627Z,93624.00
2024-02-21T04:27:38.703Z,93625.00
2024-02-21T04:28:38.831Z,93625.00
2024-02-21T04:29:38.941Z,93623.00
2024-02-21T04:30:38.980Z,93622.00
2024-02-21T04:31:39.103Z,93622.00
2024-02-21T04:32:39.199Z,93623.00
2024-02-21T04:33:39.239Z,93622.00
2024-02-21T04:34:39.443Z,93624.00
2024-02-21T04:35:39.465Z,93626.00
2024-02-21T04:36:39.478Z,93626.00
2024-02-21T04:37:39.607Z,93630.00
2024-02-21T04:38:39.778Z,93633.00
2024-02-21T04:39:39.737Z,93633.00
2024-02-21T04:40:39.858Z,93633.00
2024-02-21T04:41:39.898Z,93634.00
2024-02-21T04:42:39.975Z,93633.00
2024-02-21T04:43:40.101Z,93633.00
2024-02-21T04:44:40.144Z,93633.00
2024-02-21T04:45:40.239Z,93631.00
2024-02-21T04:46:40.357Z,93633.00
2024-02-21T04:47:40.446Z,93632.00
2024-02-21T04:48:40.487Z,93631.00
2024-02-21T04:49:40.640Z,93631.00
2024-02-21T04:50:40.708Z,93628.00
2024-02-21T04:51:40.717Z,93626.00
2024-02-21T04:52:40.832Z,93626.00
2024-02-21T04:53:40.888Z,93624.00
2024-02-21T04:54:40.959Z,93623.00
2024-02-21T04:55:41.080Z,93621.00
2024-02-21T04:56:41.111Z,93616.00
2024-02-21T04:57:48.487Z,93615.00
2024-02-21T04:58:48.573Z,93610.00
2024-02-21T04:59:48.598Z,93610.00
2024-02-21T05:00:48.637Z,93609.00
2024-02-21T05:01:48.662Z,93612.00
2024-02-21T05:02:48.674Z,93612.00
2024-02-21T05:03:48.717Z,93609.00
2024-02-21T05:04:48.844Z,93610.00
2024-02-21T05:05:48.858Z,93606.00
2024-02-21T05:06:48.864Z,93603.00
2024-02-21T05:07:48.974Z,93605.00
2024-02-21T05:08:48.947Z,93607.00
2024-02-21T05:09:48.940Z,93606.00
2024-02-21T05:10:49.056Z,93606.00
2024-02-21T05:11:49.034Z,93604.00
2024-02-21T05:12:49.032Z,93602.00
2024-02-21T05:13:49.173Z,93603.00
2024-02-21T05:14:49.104Z,93596.00
2024-02-21T05:15:49.136Z,93594.00
2024-02-21T05:16:49.275Z,93594.00
2024-02-21T05:17:49.277Z,93597.00
2024-02-21T05:18:49.304Z,93599.00
2024-02-21T05:19:49.357Z,93596.00
2024-02-21T05:20:49.290Z,93597.00
2024-02-21T05:21:49.383Z,93595.00
2024-02-21T05:22:49.584Z,93595.00
2024-02-21T05:23:49.506Z,93592.00
2024-02-21T05:24:49.591Z,93593.00
2024-02-21T05:25:49.834Z,93592.00
2024-02-21T05:26:49.724Z,93591.00
2024-02-21T05:27:49.886Z,93595.00
2024-02-21T05:28:50.062Z,93597.00
2024-02-21T05:29:49.976Z,93596.00
2024-02-21T05:30:50.039Z,93598.00
2024-02-21T05:31:50.191Z,93594.00
2024-02-21T05:32:50.208Z,93591.00
2024-02-21T05:33:50.330Z,93591.00
2024-02-21T05:34:50.400Z,93592.00
2024-02-21T05:35:50.416Z,93593.00
2024-02-21T05:36:50.508Z,93590.00
2024-02-21T05:37:50.576Z,93591.00
2024-02-21T05:38:50.643Z,93589.00
2024-02-21T05:39:50.712Z,93588.00
2024-02-21T05:40:50.836Z,93587.00
2024-02-21T05:41:50.868Z,93588.00
2024-02-21T05:42:50.952Z,93584.00
2024-02-21T05:43:51.049Z,93583.00
2024-02-21T05:44:51.060Z,93580.00
2024-02-21T05:45:51.135Z,93578.00
2024-02-21T05:46:51.279Z,93577.00
2024-02-21T05:47:51.443Z,93574.00
2024-02-21T05:48:51.467Z,93575.00
2024-02-21T05:49:51.449Z,93572.00
2024-02-21T05:50:51.508Z,93569.00
2024-02-21T05:51:51.590Z,93570.00
2024-02-21T05:52:51.793Z,93566.00
2024-02-21T05:53:51.742Z,93561.00
2024-02-21T05:54:51.801Z,93555.00
2024-02-21T05:55:51.902Z,93553.00
2024-02-21T05:56:51.956Z,93550.00
2024-02-21T05:57:52.009Z,93549.00
2024-02-21T05:58:52.138Z,93549.00
2024-02-21T05:59:52.163Z,93549.00
2024-02-21T06:00:52.268Z,93543.00
2024-02-21T06:01:52.325Z,93543.00
2024-02-21T06:02:52.364Z,93547.00
2024-02-21T06:03:52.448Z,93545.00
2024-02-21T06:04:52.526Z,93541.00
2024-02-21T06:05:52.584Z,93540.00
2024-02-21T06:06:52.681Z,93540.00
2024-02-21T06:07:52.768Z,93541.00
2024-02-21T06:08:52.791Z,93540.00
2024-02-21T06:09:52.835Z,93544.00
2024-02-21T06:10:52.999Z,93544.00
2024-02-21T06:11:53.737Z,93539.00
2024-02-21T06:12:53.051Z,93545.00
2024-02-21T06:13:53.186Z,93545.00
2024-02-21T06:14:53.263Z,93544.00
2024-02-21T06:15:53.271Z,93543.00
2024-02-21T06:16:53.346Z,93547.00
2024-02-21T06:17:53.421Z,93546.00
2024-02-21T06:18:53.509Z,93553.00
2024-02-21T06:19:53.627Z,93556.00
2024-02-21T06:20:53.624Z,93555.00
2024-02-21T06:21:53.691Z,93560.00
2024-02-21T06:22:53.817Z,93568.00
2024-02-21T06:23:53.825Z,93563.00
2024-02-21T06:24:53.888Z,93565.00
2024-02-21T06:25:53.982Z,93563.00
2024-02-21T06:26:54.027Z,93562.00
2024-02-21T06:27:54.119Z,93560.00
2024-02-21T06:28:55.121Z,93559.00
2024-02-21T06:29:54.245Z,93554.00
2024-02-21T06:30:54.306Z,93557.00
2024-02-21T06:31:54.406Z,93563.00
2024-02-21T06:32:54.521Z,93565.00
2024-02-21T06:33:54.550Z,93566.00
2024-02-21T06:34:54.686Z,93565.00
2024-02-21T06:35:54.674Z,93567.00
2024-02-21T06:36:54.721Z,93567.00
2024-02-21T06:37:54.870Z,93562.00
2024-02-21T06:38:54.847Z,93562.00
2024-02-21T06:39:55.594Z,93564.00
2024-02-21T06:40:54.940Z,93564.00
2024-02-21T06:41:54.958Z,93564.00
2024-02-21T06:42:55.028Z,93561.00
2024-02-21T06:43:55.234Z,93568.00
2024-02-21T06:44:55.168Z,93568.00
2024-02-21T06:45:55.320Z,93570.00
2024-02-21T06:46:55.445Z,93569.00
2024-02-21T06:47:55.468Z,93569.00
2024-02-21T06:48:55.619Z,93565.00
2024-02-21T06:49:55.691Z,93571.00
2024-02-21T06:50:55.707Z,93570.00
2024-02-21T06:51:55.769Z,93571.00
2024-02-21T06:52:55.857Z,93568.00
2024-02-21T06:53:55.910Z,93563.00
2024-02-21T06:54:56.523Z,93567.00
2024-02-21T06:55:56.032Z,93564.00
2024-02-21T06:56:56.126Z,93559.00
2024-02-21T06:57:56.148Z,93564.00
2024-02-21T06:58:56.291Z,93562.00
2024-02-21T06:59:56.325Z,93558.00
2024-02-21T07:00:56.368Z,93556.00
2024-02-21T07:01:56.418Z,93552.00
2024-02-21T07:02:56.444Z,93547.00
2024-02-21T07:03:56.503Z,93550.00
2024-02-21T07:04:56.620Z,93550.00
2024-02-21T07:05:56.675Z,93547.00
2024-02-21T07:06:57.717Z,93552.00
2024-02-21T07:07:56.687Z,93558.00
2024-02-21T07:08:57.701Z,93553.00
2024-02-21T07:09:56.681Z,93558.00
2024-02-21T07:10:56.735Z,93552.00
2024-02-21T07:11:56.790Z,93548.00
2024-02-21T07:12:56.738Z,93547.00
2024-02-21T07:13:58.666Z,93546.00
2024-02-21T07:14:56.778Z,93550.00
2024-02-21T07:15:56.777Z,93547.00
2024-02-21T07:16:57.641Z,93545.00
2024-02-21T07:17:56.882Z,93546.00
2024-02-21T07:18:56.887Z,93547.00
2024-02-21T07:19:57.649Z,93551.00
2024-02-21T07:20:56.868Z,93542.00
2024-02-21T07:21:57.025Z,93542.00
2024-02-21T07:22:56.994Z,93543.00
2024-02-21T07:23:57.003Z,93546.00
2024-02-21T07:24:56.968Z,93554.00
2024-02-21T07:25:57.032Z,93555.00
2024-02-21T07:26:56.970Z,93558.00
2024-02-21T07:27:56.994Z,93561.00
2024-02-21T07:28:57.064Z,93563.00
2024-02-21T07:29:57.037Z,93565.00
2024-02-21T07:30:57.088Z,93569.00
2024-02-21T07:31:57.161Z,93568.00
2024-02-21T07:32:57.158Z,93570.00
2024-02-21T07:33:57.242Z,93566.00
2024-02-21T07:34:57.373Z,93563.00
2024-02-21T07:35:57.371Z,93569.00
2024-02-21T07:36:57.483Z,93569.00
2024-02-21T07:37:57.566Z,93564.00
2024-02-21T07:38:57.649Z,93563.00
2024-02-21T07:39:57.658Z,93564.00
2024-02-21T07:40:57.757Z,93563.00
2024-02-21T07:41:57.793Z,93564.00
2024-02-21T07:42:57.877Z,93560.00
2024-02-21T07:43:57.985Z,93558.00
2024-02-21T07:44:57.939Z,93555.00
2024-02-21T07:45:57.976Z,93554.00
2024-02-21T07:46:58.092Z,93547.00
2024-02-21T07:47:58.566Z,93554.00
2024-02-21T07:48:59.123Z,93545.00
2024-02-21T07:49:58.259Z,93541.00
2024-02-21T07:50:58.206Z,93541.00
2024-02-21T07:51:58.206Z,93542.00
2024-02-21T07:52:58.301Z,93543.00
2024-02-21T07:53:58.293Z,93536.00
2024-02-21T07:54:58.325Z,93536.00
2024-02-21T07:55:58.486Z,93527.00
2024-02-21T07:56:58.385Z,93531.00
2024-02-21T07:57:58.430Z,93529.00
2024-02-21T07:58:58.621Z,93525.00
2024-02-21T07:59:59.138Z,93526.00
2024-02-21T08:00:58.542Z,93527.00
2024-02-21T08:01:58.616Z,93530.00
2024-02-21T08:02:58.632Z,93528.00
2024-02-21T08:04:01.213Z,93518.00
2024-02-21T08:04:58.915Z,93515.00
2024-02-21T08:05:58.903Z,93520.00
2024-02-21T08:06:58.911Z,93518.00
2024-02-21T08:07:59.094Z,93519.00
2024-02-21T08:08:58.980Z,93518.00
2024-02-21T08:09:59.006Z,93515.00
2024-02-21T08:10:59.147Z,93519.00
2024-02-21T08:11:59.128Z,93515.00
2024-02-21T08:12:59.103Z,93517.00
2024-02-21T08:13:59.218Z,93518.00
2024-02-21T08:14:59.174Z,93514.00
2024-02-21T08:15:59.228Z,93514.00
2024-02-21T08:16:59.284Z,93520.00
2024-02-21T08:17:59.318Z,93516.00
2024-02-21T08:19:00.160Z,93516.00
2024-02-21T08:19:59.374Z,93510.00
2024-02-21T08:20:59.371Z,93508.00
2024-02-21T08:21:59.394Z,93510.00
2024-02-21T08:22:59.495Z,93508.00
2024-02-21T08:23:59.488Z,93506.00
2024-02-21T08:24:59.545Z,93511.00
2024-02-21T08:25:59.633Z,93509.00
2024-02-21T08:26:59.614Z,93511.00
2024-02-21T08:27:59.675Z,93507.00
2024-02-21T08:28:59.736Z,93498.00
2024-02-21T08:29:59.753Z,93495.00
2024-02-21T08:30:59.801Z,93484.00
2024-02-21T08:31:59.961Z,93485.00
2024-02-21T08:32:59.991Z,93486.00
2024-02-21T08:33:59.984Z,93477.00
2024-02-21T08:35:00.092Z,93480.00
2024-02-21T08:36:00.680Z,93476.00
2024-02-21T08:37:00.174Z,93478.00
2024-02-21T08:38:00.300Z,93478.00
2024-02-21T08:39:00.328Z,93476.00
2024-02-21T08:40:00.444Z,93473.00
2024-02-21T08:41:00.669Z,93475.00
2024-02-21T08:42:00.653Z,93465.00
2024-02-21T08:43:00.693Z,93461.00
2024-02-21T08:44:00.905Z,93454.00
2024-02-21T08:45:00.818Z,93453.00
2024-02-21T08:46:00.911Z,93454.00
2024-02-21T08:47:01.121Z,93456.00
2024-02-21T08:48:01.152Z,93451.00
2024-02-21T08:49:02.140Z,93456.00
2024-02-21T08:50:08.834Z,93450.00
2024-02-21T08:51:02.330Z,93446.00
2024-02-21T08:52:01.384Z,93446.00
2024-02-21T08:53:01.311Z,93441.00
2024-02-21T08:54:01.307Z,93439.00
2024-02-21T08:55:01.349Z,93445.00
2024-02-21T08:56:01.430Z,93443.00
2024-02-21T08:57:01.352Z,93440.00
2024-02-21T08:58:01.378Z,93439.00
2024-02-21T08:59:01.414Z,93438.00
2024-02-21T09:00:01.521Z,93437.00
2024-02-21T09:01:01.541Z,93438.00
2024-02-21T09:02:01.629Z,93439.00
2024-02-21T09:03:01.685Z,93425.00
2024-02-21T09:04:01.825Z,93437.00
2024-02-21T09:05:01.986Z,93438.00
2024-02-21T09:06:02.049Z,93436.00
2024-02-21T09:07:02.026Z,93427.00
2024-02-21T09:08:02.094Z,93426.00
2024-02-21T09:09:02.247Z,93425.00
2024-02-21T09:10:03.100Z,93421.00
2024-02-21T09:11:02.473Z,93419.00
2024-02-21T09:12:02.414Z,93418.00
2024-02-21T09:13:02.465Z,93413.00
2024-02-21T09:14:02.581Z,93406.00
2024-02-21T09:15:02.689Z,93409.00
2024-02-21T09:16:02.635Z,93405.00
2024-02-21T09:17:02.775Z,93401.00
2024-02-21T09:18:02.752Z,93392.00
2024-02-21T09:19:02.879Z,93390.00
2024-02-21T09:20:03.029Z,93392.00
2024-02-21T09:21:02.953Z,93392.00
2024-02-21T09:22:02.989Z,93383.00
2024-02-21T09:23:03.167Z,93387.00
2024-02-21T09:24:03.161Z,93386.00
2024-02-21T09:25:03.221Z,93389.00
2024-02-21T09:26:03.269Z,93387.00
2024-02-21T09:27:03.253Z,93387.00
2024-02-21T09:28:03.330Z,93384.00
2024-02-21T09:29:03.469Z,93382.00
2024-02-21T09:30:03.561Z,93380.00
2024-02-21T09:31:03.567Z,93379.00
2024-02-21T09:32:03.784Z,93379.00
2024-02-21T09:33:04.753Z,93372.00
2024-02-21T09:34:04.051Z,93381.00
2024-02-21T09:35:04.140Z,93384.00
2024-02-21T09:36:03.963Z,93379.00
2024-02-21T09:37:04.057Z,93379.00
2024-02-21T09:38:04.177Z,93376.00
2024-02-21T09:39:05.190Z,93380.00
2024-02-21T09:40:04.289Z,93373.00
2024-02-21T09:41:04.424Z,93378.00
2024-02-21T09:42:04.775Z,93373.00
2024-02-21T09:43:04.491Z,93366.00
2024-02-21T09:44:04.614Z,93372.00
2024-02-21T09:45:04.633Z,93365.00
2024-02-21T09:46:04.679Z,93366.00
2024-02-21T09:47:04.886Z,93364.00
2024-02-21T09:48:04.836Z,93365.00
2024-02-21T09:49:04.861Z,93355.00
2024-02-21T09:50:04.903Z,93357.00
2024-02-21T09:51:04.927Z,93362.00
2024-02-21T09:52:04.969Z,93357.00
2024-02-21T09:53:05.065Z,93357.00
2024-02-21T09:54:11.976Z,93357.00
2024-02-21T09:55:06.086Z,93356.00
2024-02-21T09:56:05.252Z,93353.00
2024-02-21T09:57:05.100Z,93353.00
2024-02-21T09:58:05.114Z,93353.00
2024-02-21T09:59:05.174Z,93349.00
2024-02-21T10:00:05.154Z,93349.00
2024-02-21T10:01:11.022Z,93355.00
2024-02-21T10:02:06.297Z,93348.00
2024-02-21T10:03:05.200Z,93346.00
2024-02-21T10:04:05.257Z,93344.00
2024-02-21T10:05:05.358Z,93347.00
2024-02-21T10:06:06.636Z,93341.00
2024-02-21T10:07:05.317Z,93342.00
2024-02-21T10:08:05.395Z,93345.00
2024-02-21T10:09:05.471Z,93342.00
2024-02-21T10:10:05.305Z,93338.00
2024-02-21T10:11:05.412Z,93341.00
2024-02-21T10:12:05.392Z,93334.00
2024-02-21T10:13:05.364Z,93336.00
2024-02-21T10:14:05.496Z,93330.00
2024-02-21T10:15:05.386Z,93336.00
2024-02-21T10:16:05.391Z,93332.00
2024-02-21T10:17:05.472Z,93333.00
2024-02-21T10:18:05.595Z,93329.00
2024-02-21T10:19:05.654Z,93332.00
2024-02-21T10:20:05.527Z,93335.00
2024-02-21T10:21:05.506Z,93333.00
2024-02-21T10:22:05.588Z,93327.00
2024-02-21T10:23:05.624Z,93329.00
2024-02-21T10:24:05.684Z,93332.00
2024-02-21T10:25:05.745Z,93332.00
2024-02-21T10:26:05.903Z,93326.00
2024-02-21T10:27:07.713Z,93324.00
2024-02-21T10:28:06.626Z,93318.00
2024-02-21T10:29:06.016Z,93321.00
2024-02-21T10:30:06.592Z,93319.00
2024-02-21T10:31:05.938Z,93314.00
2024-02-21T10:32:06.062Z,93314.00
2024-02-21T10:33:06.806Z,93311.00
2024-02-21T10:34:06.077Z,93309.00
2024-02-21T10:35:06.350Z,93309.00
2024-02-21T10:36:06.144Z,93306.00
2024-02-21T10:37:06.074Z,93306.00
2024-02-21T10:38:07.189Z,93295.00
2024-02-21T10:39:06.116Z,93297.00
2024-02-21T10:40:06.136Z,93294.00
2024-02-21T10:41:06.223Z,93296.00
2024-02-21T10:42:06.193Z,93296.00
2024-02-21T10:43:06.205Z,93298.00
2024-02-21T10:44:06.228Z,93296.00
2024-02-21T10:45:06.262Z,93297.00
2024-02-21T10:46:06.277Z,93297.00
2024-02-21T10:47:06.332Z,93290.00
2024-02-21T10:48:06.393Z,93283.00
2024-02-21T10:49:08.514Z,93288.00
2024-02-21T10:50:06.435Z,93285.00
2024-02-21T10:51:06.410Z,93280.00
2024-02-21T10:52:07.209Z,93276.00
2024-02-21T10:53:06.656Z,93271.00
2024-02-21T10:54:07.225Z,93271.00
2024-02-21T10:55:06.920Z,93268.00
2024-02-21T10:56:06.881Z,93264.00
2024-02-21T10:57:06.863Z,93264.00
2024-02-21T10:58:06.912Z,93265.00
2024-02-21T10:59:07.171Z,93262.00
2024-02-21T11:00:07.084Z,93255.00
2024-02-21T11:01:07.633Z,93255.00
2024-02-21T11:02:07.916Z,93255.00
2024-02-21T11:03:08.665Z,93252.00
2024-02-21T11:04:07.392Z,93249.00
2024-02-21T11:05:08.385Z,93248.00
2024-02-21T11:06:07.476Z,93245.00
2024-02-21T11:07:10.939Z,93242.00
2024-02-21T11:08:07.670Z,93243.00
2024-02-21T11:09:07.942Z,93236.00
2024-02-21T11:10:07.603Z,93234.00
2024-02-21T11:11:08.151Z,93234.00
2024-02-21T11:12:07.940Z,93229.00
2024-02-21T11:13:07.655Z,93226.00
2024-02-21T11:14:08.686Z,93224.00
2024-02-21T11:15:07.711Z,93220.00
2024-02-21T11:16:07.749Z,93217.00
2024-02-21T11:17:07.832Z,93215.00
2024-02-21T11:18:07.911Z,93208.00
2024-02-21T11:19:07.851Z,93208.00
2024-02-21T11:20:07.864Z,93203.00
2024-02-21T11:21:08.842Z,93197.00
2024-02-21T11:22:08.685Z,93199.00
2024-02-21T11:23:08.049Z,93197.00
2024-02-21T11:24:07.891Z,93187.00
2024-02-21T11:25:07.996Z,93186.00
2024-02-21T11:26:08.110Z,93180.00
2024-02-21T11:27:07.944Z,93178.00
2024-02-21T11:28:08.004Z,93178.00
2024-02-21T11:29:08.042Z,93172.00
2024-02-21T11:30:07.996Z,93171.00
2024-02-21T11:31:08.011Z,93166.00
2024-02-21T11:32:08.063Z,93165.00
2024-02-21T11:33:08.104Z,93167.00
2024-02-21T11:34:08.131Z,93164.00
2024-02-21T11:35:09.209Z,93169.00
2024-02-21T11:36:08.120Z,93162.00
2024-02-21T11:37:08.729Z,93162.00
2024-02-21T11:38:08.243Z,93159.00
2024-02-21T11:39:08.153Z,93161.00
2024-02-21T11:40:08.204Z,93158.00
2024-02-21T11:41:08.245Z,93152.00
2024-02-21T11:42:08.212Z,93149.00
2024-02-21T11:43:08.229Z,93142.00
2024-02-21T11:44:09.279Z,93147.00
2024-02-21T11:45:08.324Z,93143.00